sensor_id;sensor_type;location;lat;lon;timestamp;P1;durP1;ratioP1;P2;durP2;ratioP2
49828;SDS011;35723;51.194;5.112;2023-04-24T00:01:43;24.30;;;10.82;;
49828;SDS011;35723;51.194;5.112;2023-04-24T00:04:08;25.88;;;11.10;;
49828;SDS011;35723;51.194;5.112;2023-04-24T00:06:36;24.80;;;11.15;;
49828;SDS011;35723;51.194;5.112;2023-04-24T00:09:03;26.42;;;11.20;;
49828;SDS011;35723;51.194;5.112;2023-04-24T00:11:30;24.02;;;10.65;;
49828;SDS011;35723;51.194;5.112;2023-04-24T00:13:56;27.98;;;11.38;;
49828;SDS011;35723;51.194;5.112;2023-04-24T00:16:22;24.23;;;11.30;;
49828;SDS011;35723;51.194;5.112;2023-04-24T00:18:48;26.85;;;11.70;;
49828;SDS011;35723;51.194;5.112;2023-04-24T00:21:14;29.23;;;12.10;;
49828;SDS011;35723;51.194;5.112;2023-04-24T00:23:42;24.30;;;11.68;;
49828;SDS011;35723;51.194;5.112;2023-04-24T00:26:08;24.15;;;12.18;;
49828;SDS011;35723;51.194;5.112;2023-04-24T00:28:34;23.63;;;11.43;;
49828;SDS011;35723;51.194;5.112;2023-04-24T00:31:00;26.00;;;11.43;;
49828;SDS011;35723;51.194;5.112;2023-04-24T00:33:25;24.70;;;12.00;;
49828;SDS011;35723;51.194;5.112;2023-04-24T00:35:51;28.83;;;11.75;;
49828;SDS011;35723;51.194;5.112;2023-04-24T00:38:17;31.08;;;12.25;;
49828;SDS011;35723;51.194;5.112;2023-04-24T00:40:43;28.38;;;13.07;;
49828;SDS011;35723;51.194;5.112;2023-04-24T00:43:09;35.10;;;13.68;;
49828;SDS011;35723;51.194;5.112;2023-04-24T00:45:35;34.60;;;14.05;;
49828;SDS011;35723;51.194;5.112;2023-04-24T00:48:01;28.10;;;12.90;;
49828;SDS011;35723;51.194;5.112;2023-04-24T00:50:27;28.48;;;13.30;;
49828;SDS011;35723;51.194;5.112;2023-04-24T00:52:54;30.83;;;14.13;;
49828;SDS011;35723;51.194;5.112;2023-04-24T00:55:20;30.00;;;15.18;;
49828;SDS011;35723;51.194;5.112;2023-04-24T00:57:45;31.00;;;15.00;;
49828;SDS011;35723;51.194;5.112;2023-04-24T01:00:12;30.73;;;14.52;;
49828;SDS011;35723;51.194;5.112;2023-04-24T01:02:42;28.88;;;14.82;;
49828;SDS011;35723;51.194;5.112;2023-04-24T01:05:10;30.30;;;14.82;;
49828;SDS011;35723;51.194;5.112;2023-04-24T01:07:40;29.85;;;15.13;;
49828;SDS011;35723;51.194;5.112;2023-04-24T01:10:09;27.05;;;14.82;;
49828;SDS011;35723;51.194;5.112;2023-04-24T01:12:35;29.30;;;15.25;;
49828;SDS011;35723;51.194;5.112;2023-04-24T01:15:01;30.65;;;15.13;;
49828;SDS011;35723;51.194;5.112;2023-04-24T01:17:28;26.13;;;14.55;;
49828;SDS011;35723;51.194;5.112;2023-04-24T01:19:54;33.03;;;15.02;;
49828;SDS011;35723;51.194;5.112;2023-04-24T01:22:22;32.60;;;14.95;;
49828;SDS011;35723;51.194;5.112;2023-04-24T01:24:47;33.55;;;14.48;;
49828;SDS011;35723;51.194;5.112;2023-04-24T01:27:13;30.92;;;14.75;;
49828;SDS011;35723;51.194;5.112;2023-04-24T01:29:39;31.80;;;14.73;;
49828;SDS011;35723;51.194;5.112;2023-04-24T01:32:05;33.58;;;15.00;;
49828;SDS011;35723;51.194;5.112;2023-04-24T01:34:31;29.20;;;14.77;;
49828;SDS011;35723;51.194;5.112;2023-04-24T01:36:57;29.17;;;15.30;;
49828;SDS011;35723;51.194;5.112;2023-04-24T01:39:23;34.10;;;15.93;;
49828;SDS011;35723;51.194;5.112;2023-04-24T01:41:50;31.80;;;15.98;;
49828;SDS011;35723;51.194;5.112;2023-04-24T01:44:17;29.20;;;15.02;;
49828;SDS011;35723;51.194;5.112;2023-04-24T01:46:43;30.98;;;15.07;;
49828;SDS011;35723;51.194;5.112;2023-04-24T01:49:09;30.00;;;14.30;;
49828;SDS011;35723;51.194;5.112;2023-04-24T01:51:35;34.85;;;15.35;;
49828;SDS011;35723;51.194;5.112;2023-04-24T01:54:01;28.13;;;14.55;;
49828;SDS011;35723;51.194;5.112;2023-04-24T01:56:28;30.02;;;14.52;;
49828;SDS011;35723;51.194;5.112;2023-04-24T01:58:55;25.90;;;13.77;;
49828;SDS011;35723;51.194;5.112;2023-04-24T02:01:21;30.05;;;14.07;;
49828;SDS011;35723;51.194;5.112;2023-04-24T02:03:49;42.58;;;14.98;;
49828;SDS011;35723;51.194;5.112;2023-04-24T02:06:14;28.25;;;14.35;;
49828;SDS011;35723;51.194;5.112;2023-04-24T02:08:40;32.38;;;14.68;;
49828;SDS011;35723;51.194;5.112;2023-04-24T02:11:06;28.83;;;14.30;;
49828;SDS011;35723;51.194;5.112;2023-04-24T02:13:33;31.50;;;14.77;;
49828;SDS011;35723;51.194;5.112;2023-04-24T02:15:58;29.30;;;14.05;;
49828;SDS011;35723;51.194;5.112;2023-04-24T02:18:24;30.30;;;14.15;;
49828;SDS011;35723;51.194;5.112;2023-04-24T02:20:50;29.73;;;13.85;;
49828;SDS011;35723;51.194;5.112;2023-04-24T02:23:15;28.23;;;13.85;;
49828;SDS011;35723;51.194;5.112;2023-04-24T02:25:41;29.25;;;13.68;;
49828;SDS011;35723;51.194;5.112;2023-04-24T02:28:07;27.42;;;13.50;;
49828;SDS011;35723;51.194;5.112;2023-04-24T02:30:32;32.22;;;14.18;;
49828;SDS011;35723;51.194;5.112;2023-04-24T02:32:58;25.52;;;13.40;;
49828;SDS011;35723;51.194;5.112;2023-04-24T02:35:23;27.83;;;13.27;;
49828;SDS011;35723;51.194;5.112;2023-04-24T02:37:49;23.88;;;12.57;;
49828;SDS011;35723;51.194;5.112;2023-04-24T02:40:15;27.52;;;12.82;;
49828;SDS011;35723;51.194;5.112;2023-04-24T02:42:40;26.23;;;12.85;;
49828;SDS011;35723;51.194;5.112;2023-04-24T02:45:06;24.83;;;12.63;;
49828;SDS011;35723;51.194;5.112;2023-04-24T02:47:32;29.95;;;12.95;;
49828;SDS011;35723;51.194;5.112;2023-04-24T02:49:58;26.38;;;12.23;;
49828;SDS011;35723;51.194;5.112;2023-04-24T02:52:23;27.63;;;12.30;;
49828;SDS011;35723;51.194;5.112;2023-04-24T02:54:49;24.73;;;11.98;;
49828;SDS011;35723;51.194;5.112;2023-04-24T02:57:15;24.35;;;12.50;;
49828;SDS011;35723;51.194;5.112;2023-04-24T02:59:40;25.88;;;12.07;;
49828;SDS011;35723;51.194;5.112;2023-04-24T03:02:06;21.58;;;11.55;;
49828;SDS011;35723;51.194;5.112;2023-04-24T03:04:32;23.50;;;12.38;;
49828;SDS011;35723;51.194;5.112;2023-04-24T03:06:57;23.52;;;11.23;;
49828;SDS011;35723;51.194;5.112;2023-04-24T03:09:23;25.55;;;12.18;;
49828;SDS011;35723;51.194;5.112;2023-04-24T03:11:49;24.45;;;11.57;;
49828;SDS011;35723;51.194;5.112;2023-04-24T03:14:15;22.17;;;10.80;;
49828;SDS011;35723;51.194;5.112;2023-04-24T03:16:41;23.23;;;11.00;;
49828;SDS011;35723;51.194;5.112;2023-04-24T03:19:07;21.30;;;10.63;;
49828;SDS011;35723;51.194;5.112;2023-04-24T03:21:33;20.70;;;10.38;;
49828;SDS011;35723;51.194;5.112;2023-04-24T03:24:00;22.65;;;10.32;;
49828;SDS011;35723;51.194;5.112;2023-04-24T03:26:27;23.02;;;10.25;;
49828;SDS011;35723;51.194;5.112;2023-04-24T03:28:52;19.60;;;9.90;;
49828;SDS011;35723;51.194;5.112;2023-04-24T03:31:18;22.55;;;9.68;;
49828;SDS011;35723;51.194;5.112;2023-04-24T03:33:46;18.77;;;9.25;;
49828;SDS011;35723;51.194;5.112;2023-04-24T03:36:11;22.13;;;9.63;;
49828;SDS011;35723;51.194;5.112;2023-04-24T03:38:37;19.02;;;9.05;;
49828;SDS011;35723;51.194;5.112;2023-04-24T03:41:02;21.88;;;9.68;;
49828;SDS011;35723;51.194;5.112;2023-04-24T03:43:28;18.83;;;8.70;;
49828;SDS011;35723;51.194;5.112;2023-04-24T03:45:54;19.75;;;9.55;;
49828;SDS011;35723;51.194;5.112;2023-04-24T03:48:19;20.52;;;9.57;;
49828;SDS011;35723;51.194;5.112;2023-04-24T03:50:45;19.70;;;9.65;;
49828;SDS011;35723;51.194;5.112;2023-04-24T03:53:11;19.30;;;9.15;;
49828;SDS011;35723;51.194;5.112;2023-04-24T03:55:36;20.92;;;10.02;;
49828;SDS011;35723;51.194;5.112;2023-04-24T03:58:02;19.58;;;9.65;;
49828;SDS011;35723;51.194;5.112;2023-04-24T04:00:28;21.88;;;9.80;;
49828;SDS011;35723;51.194;5.112;2023-04-24T04:02:53;21.02;;;9.80;;
49828;SDS011;35723;51.194;5.112;2023-04-24T04:05:19;19.33;;;9.85;;
49828;SDS011;35723;51.194;5.112;2023-04-24T04:07:45;20.30;;;9.90;;
49828;SDS011;35723;51.194;5.112;2023-04-24T04:10:11;22.35;;;10.38;;
49828;SDS011;35723;51.194;5.112;2023-04-24T04:12:36;19.67;;;9.40;;
49828;SDS011;35723;51.194;5.112;2023-04-24T04:15:02;20.38;;;10.38;;
49828;SDS011;35723;51.194;5.112;2023-04-24T04:17:28;20.33;;;9.52;;
49828;SDS011;35723;51.194;5.112;2023-04-24T04:19:54;20.67;;;9.70;;
49828;SDS011;35723;51.194;5.112;2023-04-24T04:22:20;20.98;;;10.05;;
49828;SDS011;35723;51.194;5.112;2023-04-24T04:24:45;21.65;;;9.20;;
49828;SDS011;35723;51.194;5.112;2023-04-24T04:27:11;18.13;;;9.15;;
49828;SDS011;35723;51.194;5.112;2023-04-24T04:29:38;20.92;;;9.38;;
49828;SDS011;35723;51.194;5.112;2023-04-24T04:32:05;18.60;;;8.73;;
49828;SDS011;35723;51.194;5.112;2023-04-24T04:34:31;19.08;;;9.20;;
49828;SDS011;35723;51.194;5.112;2023-04-24T04:36:56;21.00;;;8.57;;
49828;SDS011;35723;51.194;5.112;2023-04-24T04:39:25;18.60;;;9.30;;
49828;SDS011;35723;51.194;5.112;2023-04-24T04:41:51;18.77;;;8.10;;
49828;SDS011;35723;51.194;5.112;2023-04-24T04:44:17;16.98;;;7.68;;
49828;SDS011;35723;51.194;5.112;2023-04-24T04:46:43;17.77;;;7.75;;
49828;SDS011;35723;51.194;5.112;2023-04-24T04:49:09;16.30;;;7.55;;
49828;SDS011;35723;51.194;5.112;2023-04-24T04:51:35;18.38;;;7.70;;
49828;SDS011;35723;51.194;5.112;2023-04-24T04:54:01;14.45;;;7.20;;
49828;SDS011;35723;51.194;5.112;2023-04-24T04:56:27;14.27;;;6.80;;
49828;SDS011;35723;51.194;5.112;2023-04-24T04:58:53;12.95;;;6.22;;
49828;SDS011;35723;51.194;5.112;2023-04-24T05:01:18;12.30;;;6.07;;
49828;SDS011;35723;51.194;5.112;2023-04-24T05:03:44;15.07;;;6.75;;
49828;SDS011;35723;51.194;5.112;2023-04-24T05:06:10;14.85;;;6.50;;
49828;SDS011;35723;51.194;5.112;2023-04-24T05:08:35;12.05;;;5.75;;
49828;SDS011;35723;51.194;5.112;2023-04-24T05:11:01;10.25;;;5.18;;
49828;SDS011;35723;51.194;5.112;2023-04-24T05:13:27;10.82;;;5.70;;
49828;SDS011;35723;51.194;5.112;2023-04-24T05:15:52;11.38;;;5.55;;
49828;SDS011;35723;51.194;5.112;2023-04-24T05:18:18;14.38;;;6.13;;
49828;SDS011;35723;51.194;5.112;2023-04-24T05:20:44;11.60;;;5.32;;
49828;SDS011;35723;51.194;5.112;2023-04-24T05:23:09;13.40;;;5.53;;
49828;SDS011;35723;51.194;5.112;2023-04-24T05:25:36;13.13;;;5.50;;
49828;SDS011;35723;51.194;5.112;2023-04-24T05:28:04;11.00;;;5.43;;
49828;SDS011;35723;51.194;5.112;2023-04-24T05:30:30;12.02;;;5.90;;
49828;SDS011;35723;51.194;5.112;2023-04-24T05:32:55;11.15;;;5.47;;
49828;SDS011;35723;51.194;5.112;2023-04-24T05:35:21;12.70;;;5.65;;
49828;SDS011;35723;51.194;5.112;2023-04-24T05:37:47;13.82;;;6.13;;
49828;SDS011;35723;51.194;5.112;2023-04-24T05:40:12;13.85;;;6.40;;
49828;SDS011;35723;51.194;5.112;2023-04-24T05:42:38;13.45;;;6.43;;
49828;SDS011;35723;51.194;5.112;2023-04-24T05:45:04;15.20;;;6.38;;
49828;SDS011;35723;51.194;5.112;2023-04-24T05:47:30;16.25;;;6.53;;
49828;SDS011;35723;51.194;5.112;2023-04-24T05:49:56;10.85;;;5.18;;
49828;SDS011;35723;51.194;5.112;2023-04-24T05:52:21;10.88;;;5.22;;
49828;SDS011;35723;51.194;5.112;2023-04-24T05:54:47;11.20;;;5.10;;
49828;SDS011;35723;51.194;5.112;2023-04-24T05:57:13;12.45;;;5.47;;
49828;SDS011;35723;51.194;5.112;2023-04-24T05:59:39;13.90;;;5.95;;
49828;SDS011;35723;51.194;5.112;2023-04-24T06:02:05;15.98;;;6.43;;
49828;SDS011;35723;51.194;5.112;2023-04-24T06:04:31;14.30;;;6.25;;
49828;SDS011;35723;51.194;5.112;2023-04-24T06:06:58;15.90;;;6.53;;
49828;SDS011;35723;51.194;5.112;2023-04-24T06:09:24;18.20;;;6.78;;
49828;SDS011;35723;51.194;5.112;2023-04-24T06:11:50;16.13;;;7.25;;
49828;SDS011;35723;51.194;5.112;2023-04-24T06:14:18;20.17;;;8.82;;
49828;SDS011;35723;51.194;5.112;2023-04-24T06:16:44;19.00;;;9.20;;
49828;SDS011;35723;51.194;5.112;2023-04-24T06:19:09;20.92;;;9.40;;
49828;SDS011;35723;51.194;5.112;2023-04-24T06:21:35;21.17;;;9.73;;
49828;SDS011;35723;51.194;5.112;2023-04-24T06:24:01;21.23;;;10.05;;
49828;SDS011;35723;51.194;5.112;2023-04-24T06:26:27;19.60;;;9.70;;
49828;SDS011;35723;51.194;5.112;2023-04-24T06:28:52;19.38;;;9.07;;
49828;SDS011;35723;51.194;5.112;2023-04-24T06:31:23;20.13;;;9.02;;
49828;SDS011;35723;51.194;5.112;2023-04-24T06:33:49;20.45;;;9.27;;
49828;SDS011;35723;51.194;5.112;2023-04-24T06:36:15;20.88;;;8.45;;
49828;SDS011;35723;51.194;5.112;2023-04-24T06:38:41;20.23;;;8.43;;
49828;SDS011;35723;51.194;5.112;2023-04-24T06:41:07;17.58;;;7.65;;
49828;SDS011;35723;51.194;5.112;2023-04-24T06:43:33;17.58;;;7.05;;
49828;SDS011;35723;51.194;5.112;2023-04-24T06:45:59;18.95;;;6.57;;
49828;SDS011;35723;51.194;5.112;2023-04-24T06:48:25;16.38;;;6.50;;
49828;SDS011;35723;51.194;5.112;2023-04-24T06:50:51;15.02;;;7.15;;
49828;SDS011;35723;51.194;5.112;2023-04-24T06:53:17;18.90;;;6.80;;
49828;SDS011;35723;51.194;5.112;2023-04-24T06:55:43;18.17;;;7.22;;
49828;SDS011;35723;51.194;5.112;2023-04-24T06:58:11;16.48;;;6.65;;
49828;SDS011;35723;51.194;5.112;2023-04-24T07:00:36;17.77;;;7.28;;
49828;SDS011;35723;51.194;5.112;2023-04-24T07:03:03;17.67;;;7.57;;
49828;SDS011;35723;51.194;5.112;2023-04-24T07:05:30;16.52;;;6.57;;
49828;SDS011;35723;51.194;5.112;2023-04-24T07:07:56;18.70;;;6.88;;
49828;SDS011;35723;51.194;5.112;2023-04-24T07:10:23;23.05;;;7.95;;
49828;SDS011;35723;51.194;5.112;2023-04-24T07:12:49;16.98;;;7.30;;
49828;SDS011;35723;51.194;5.112;2023-04-24T07:15:15;18.00;;;7.07;;
49828;SDS011;35723;51.194;5.112;2023-04-24T07:17:41;16.88;;;7.25;;
49828;SDS011;35723;51.194;5.112;2023-04-24T07:20:10;20.75;;;7.30;;
49828;SDS011;35723;51.194;5.112;2023-04-24T07:22:39;16.52;;;7.07;;
49828;SDS011;35723;51.194;5.112;2023-04-24T07:25:05;18.55;;;7.30;;
49828;SDS011;35723;51.194;5.112;2023-04-24T07:27:32;17.77;;;7.32;;
49828;SDS011;35723;51.194;5.112;2023-04-24T07:29:58;18.60;;;7.00;;
49828;SDS011;35723;51.194;5.112;2023-04-24T07:32:23;23.20;;;8.10;;
49828;SDS011;35723;51.194;5.112;2023-04-24T07:34:49;23.83;;;7.75;;
49828;SDS011;35723;51.194;5.112;2023-04-24T07:37:15;20.15;;;7.18;;
49828;SDS011;35723;51.194;5.112;2023-04-24T07:39:40;18.70;;;6.47;;
49828;SDS011;35723;51.194;5.112;2023-04-24T07:42:06;18.40;;;6.82;;
49828;SDS011;35723;51.194;5.112;2023-04-24T07:44:32;18.48;;;6.97;;
49828;SDS011;35723;51.194;5.112;2023-04-24T07:46:57;21.60;;;7.00;;
49828;SDS011;35723;51.194;5.112;2023-04-24T07:49:23;20.48;;;7.18;;
49828;SDS011;35723;51.194;5.112;2023-04-24T07:51:49;17.65;;;6.55;;
49828;SDS011;35723;51.194;5.112;2023-04-24T07:54:15;19.27;;;6.80;;
49828;SDS011;35723;51.194;5.112;2023-04-24T07:56:41;20.63;;;7.43;;
49828;SDS011;35723;51.194;5.112;2023-04-24T07:59:08;22.42;;;6.80;;
49828;SDS011;35723;51.194;5.112;2023-04-24T08:01:35;20.10;;;7.03;;
49828;SDS011;35723;51.194;5.112;2023-04-24T08:04:01;18.30;;;6.72;;
49828;SDS011;35723;51.194;5.112;2023-04-24T08:06:27;21.00;;;7.30;;
49828;SDS011;35723;51.194;5.112;2023-04-24T08:08:55;21.20;;;8.10;;
49828;SDS011;35723;51.194;5.112;2023-04-24T08:11:21;19.73;;;7.40;;
49828;SDS011;35723;51.194;5.112;2023-04-24T08:13:47;19.70;;;6.38;;
49828;SDS011;35723;51.194;5.112;2023-04-24T08:16:12;20.08;;;6.32;;
49828;SDS011;35723;51.194;5.112;2023-04-24T08:18:38;19.73;;;6.20;;
49828;SDS011;35723;51.194;5.112;2023-04-24T08:21:04;19.02;;;5.82;;
49828;SDS011;35723;51.194;5.112;2023-04-24T08:23:30;20.30;;;5.40;;
49828;SDS011;35723;51.194;5.112;2023-04-24T08:25:55;17.00;;;5.07;;
49828;SDS011;35723;51.194;5.112;2023-04-24T08:28:22;14.75;;;5.43;;
49828;SDS011;35723;51.194;5.112;2023-04-24T08:30:47;18.42;;;5.47;;
49828;SDS011;35723;51.194;5.112;2023-04-24T08:33:13;17.50;;;5.40;;
49828;SDS011;35723;51.194;5.112;2023-04-24T08:35:39;21.60;;;5.35;;
49828;SDS011;35723;51.194;5.112;2023-04-24T08:38:05;19.40;;;5.28;;
49828;SDS011;35723;51.194;5.112;2023-04-24T08:40:31;19.30;;;5.47;;
49828;SDS011;35723;51.194;5.112;2023-04-24T08:42:59;21.75;;;5.53;;
49828;SDS011;35723;51.194;5.112;2023-04-24T08:45:25;30.65;;;6.60;;
49828;SDS011;35723;51.194;5.112;2023-04-24T08:47:54;18.83;;;5.47;;
49828;SDS011;35723;51.194;5.112;2023-04-24T08:50:20;24.63;;;5.93;;
49828;SDS011;35723;51.194;5.112;2023-04-24T08:52:47;21.33;;;6.03;;
49828;SDS011;35723;51.194;5.112;2023-04-24T08:55:14;26.33;;;6.03;;
49828;SDS011;35723;51.194;5.112;2023-04-24T08:57:43;21.95;;;5.63;;
49828;SDS011;35723;51.194;5.112;2023-04-24T09:00:10;17.40;;;4.75;;
49828;SDS011;35723;51.194;5.112;2023-04-24T09:02:37;19.58;;;4.30;;
49828;SDS011;35723;51.194;5.112;2023-04-24T09:05:06;18.60;;;3.75;;
49828;SDS011;35723;51.194;5.112;2023-04-24T09:07:34;16.42;;;3.72;;
49828;SDS011;35723;51.194;5.112;2023-04-24T09:10:02;11.77;;;2.95;;
49828;SDS011;35723;51.194;5.112;2023-04-24T09:12:28;14.73;;;3.60;;
49828;SDS011;35723;51.194;5.112;2023-04-24T09:14:54;16.48;;;3.90;;
49828;SDS011;35723;51.194;5.112;2023-04-24T09:17:21;16.75;;;4.10;;
49828;SDS011;35723;51.194;5.112;2023-04-24T09:19:48;20.42;;;4.20;;
49828;SDS011;35723;51.194;5.112;2023-04-24T09:22:13;22.67;;;4.10;;
49828;SDS011;35723;51.194;5.112;2023-04-24T09:24:40;20.88;;;3.88;;
49828;SDS011;35723;51.194;5.112;2023-04-24T09:27:06;17.10;;;3.95;;
49828;SDS011;35723;51.194;5.112;2023-04-24T09:29:32;18.65;;;4.20;;
49828;SDS011;35723;51.194;5.112;2023-04-24T09:31:58;19.23;;;4.15;;
49828;SDS011;35723;51.194;5.112;2023-04-24T09:34:25;22.10;;;4.60;;
49828;SDS011;35723;51.194;5.112;2023-04-24T09:36:52;20.55;;;3.78;;
49828;SDS011;35723;51.194;5.112;2023-04-24T09:39:18;15.73;;;4.15;;
49828;SDS011;35723;51.194;5.112;2023-04-24T09:41:51;20.67;;;4.80;;
49828;SDS011;35723;51.194;5.112;2023-04-24T09:44:19;17.67;;;4.85;;
49828;SDS011;35723;51.194;5.112;2023-04-24T09:46:49;16.17;;;3.88;;
49828;SDS011;35723;51.194;5.112;2023-04-24T09:49:22;18.60;;;4.82;;
49828;SDS011;35723;51.194;5.112;2023-04-24T09:51:52;21.95;;;4.50;;
49828;SDS011;35723;51.194;5.112;2023-04-24T09:54:31;21.45;;;5.40;;
49828;SDS011;35723;51.194;5.112;2023-04-24T09:56:57;15.55;;;4.13;;
49828;SDS011;35723;51.194;5.112;2023-04-24T09:59:23;18.30;;;4.30;;
49828;SDS011;35723;51.194;5.112;2023-04-24T10:01:48;17.90;;;4.43;;
49828;SDS011;35723;51.194;5.112;2023-04-24T10:04:33;18.45;;;4.10;;
49828;SDS011;35723;51.194;5.112;2023-04-24T10:06:59;17.08;;;4.13;;
49828;SDS011;35723;51.194;5.112;2023-04-24T10:09:31;16.97;;;3.60;;
49828;SDS011;35723;51.194;5.112;2023-04-24T10:11:57;18.40;;;4.07;;
49828;SDS011;35723;51.194;5.112;2023-04-24T10:14:25;16.38;;;3.60;;
49828;SDS011;35723;51.194;5.112;2023-04-24T10:16:52;14.98;;;3.60;;
49828;SDS011;35723;51.194;5.112;2023-04-24T10:19:19;22.17;;;4.13;;
49828;SDS011;35723;51.194;5.112;2023-04-24T10:21:45;16.42;;;3.30;;
49828;SDS011;35723;51.194;5.112;2023-04-24T10:24:15;17.17;;;3.38;;
49828;SDS011;35723;51.194;5.112;2023-04-24T10:26:43;15.60;;;3.30;;
49828;SDS011;35723;51.194;5.112;2023-04-24T10:29:10;15.45;;;3.60;;
49828;SDS011;35723;51.194;5.112;2023-04-24T10:31:37;15.80;;;3.40;;
49828;SDS011;35723;51.194;5.112;2023-04-24T10:34:05;12.10;;;3.00;;
49828;SDS011;35723;51.194;5.112;2023-04-24T10:36:31;9.57;;;2.88;;
49828;SDS011;35723;51.194;5.112;2023-04-24T10:38:59;11.13;;;2.75;;
49828;SDS011;35723;51.194;5.112;2023-04-24T10:41:27;15.63;;;3.22;;
49828;SDS011;35723;51.194;5.112;2023-04-24T10:44:08;12.77;;;2.90;;
49828;SDS011;35723;51.194;5.112;2023-04-24T10:46:35;15.15;;;3.35;;
49828;SDS011;35723;51.194;5.112;2023-04-24T10:49:05;12.80;;;2.72;;
49828;SDS011;35723;51.194;5.112;2023-04-24T10:51:48;8.50;;;2.80;;
49828;SDS011;35723;51.194;5.112;2023-04-24T10:54:24;15.02;;;3.22;;
49828;SDS011;35723;51.194;5.112;2023-04-24T10:56:50;10.65;;;2.72;;
49828;SDS011;35723;51.194;5.112;2023-04-24T10:59:26;13.75;;;3.45;;
49828;SDS011;35723;51.194;5.112;2023-04-24T11:01:53;12.98;;;2.88;;
49828;SDS011;35723;51.194;5.112;2023-04-24T11:04:29;16.50;;;3.55;;
49828;SDS011;35723;51.194;5.112;2023-04-24T11:06:56;15.32;;;3.17;;
49828;SDS011;35723;51.194;5.112;2023-04-24T11:09:22;13.55;;;3.25;;
49828;SDS011;35723;51.194;5.112;2023-04-24T11:12:05;12.90;;;3.10;;
49828;SDS011;35723;51.194;5.112;2023-04-24T11:17:33;12.65;;;3.25;;
49828;SDS011;35723;51.194;5.112;2023-04-24T11:20:05;13.57;;;2.92;;
49828;SDS011;35723;51.194;5.112;2023-04-24T11:22:33;16.17;;;3.30;;
49828;SDS011;35723;51.194;5.112;2023-04-24T11:25:03;11.55;;;3.15;;
49828;SDS011;35723;51.194;5.112;2023-04-24T11:27:38;13.65;;;3.22;;
49828;SDS011;35723;51.194;5.112;2023-04-24T11:30:05;11.52;;;2.90;;
49828;SDS011;35723;51.194;5.112;2023-04-24T11:37:42;11.02;;;3.47;;
49828;SDS011;35723;51.194;5.112;2023-04-24T11:40:14;16.58;;;3.72;;
49828;SDS011;35723;51.194;5.112;2023-04-24T11:42:45;11.13;;;3.42;;
49828;SDS011;35723;51.194;5.112;2023-04-24T11:45:14;11.82;;;3.33;;
49828;SDS011;35723;51.194;5.112;2023-04-24T11:47:44;13.50;;;3.20;;
49828;SDS011;35723;51.194;5.112;2023-04-24T11:50:14;9.98;;;3.00;;
49828;SDS011;35723;51.194;5.112;2023-04-24T11:52:41;10.43;;;3.13;;
49828;SDS011;35723;51.194;5.112;2023-04-24T11:55:30;12.35;;;3.42;;
49828;SDS011;35723;51.194;5.112;2023-04-24T11:57:58;14.20;;;3.10;;
49828;SDS011;35723;51.194;5.112;2023-04-24T12:00:28;12.60;;;3.30;;
49828;SDS011;35723;51.194;5.112;2023-04-24T12:03:29;13.07;;;3.25;;
49828;SDS011;35723;51.194;5.112;2023-04-24T12:05:48;9.52;;;2.90;;
49828;SDS011;35723;51.194;5.112;2023-04-24T12:08:26;8.98;;;2.78;;
49828;SDS011;35723;51.194;5.112;2023-04-24T12:10:53;10.80;;;2.50;;
49828;SDS011;35723;51.194;5.112;2023-04-24T12:13:19;10.68;;;2.50;;
49828;SDS011;35723;51.194;5.112;2023-04-24T12:15:45;11.57;;;2.45;;
49828;SDS011;35723;51.194;5.112;2023-04-24T12:18:13;8.52;;;2.40;;
49828;SDS011;35723;51.194;5.112;2023-04-24T12:20:41;8.65;;;2.40;;
49828;SDS011;35723;51.194;5.112;2023-04-24T12:23:07;7.13;;;2.30;;
49828;SDS011;35723;51.194;5.112;2023-04-24T12:25:33;8.07;;;2.30;;
49828;SDS011;35723;51.194;5.112;2023-04-24T12:30:28;7.95;;;2.22;;
49828;SDS011;35723;51.194;5.112;2023-04-24T12:32:57;9.93;;;2.58;;
49828;SDS011;35723;51.194;5.112;2023-04-24T12:35:30;11.20;;;2.40;;
49828;SDS011;35723;51.194;5.112;2023-04-24T12:38:11;10.50;;;2.50;;
49828;SDS011;35723;51.194;5.112;2023-04-24T12:40:38;11.30;;;2.80;;
49828;SDS011;35723;51.194;5.112;2023-04-24T12:43:17;10.38;;;2.22;;
49828;SDS011;35723;51.194;5.112;2023-04-24T12:45:44;10.15;;;2.50;;
49828;SDS011;35723;51.194;5.112;2023-04-24T12:48:10;6.72;;;2.38;;
49828;SDS011;35723;51.194;5.112;2023-04-24T12:50:36;8.70;;;2.17;;
49828;SDS011;35723;51.194;5.112;2023-04-24T12:53:03;13.30;;;2.47;;
49828;SDS011;35723;51.194;5.112;2023-04-24T12:55:29;6.68;;;2.33;;
49828;SDS011;35723;51.194;5.112;2023-04-24T12:57:54;9.48;;;2.22;;
49828;SDS011;35723;51.194;5.112;2023-04-24T13:00:21;9.27;;;2.40;;
49828;SDS011;35723;51.194;5.112;2023-04-24T13:02:46;7.95;;;2.40;;
49828;SDS011;35723;51.194;5.112;2023-04-24T13:05:12;8.52;;;2.25;;
49828;SDS011;35723;51.194;5.112;2023-04-24T13:07:38;7.30;;;2.50;;
49828;SDS011;35723;51.194;5.112;2023-04-24T13:10:05;12.65;;;2.75;;
49828;SDS011;35723;51.194;5.112;2023-04-24T13:12:31;10.43;;;2.85;;
49828;SDS011;35723;51.194;5.112;2023-04-24T13:14:57;8.00;;;2.60;;
49828;SDS011;35723;51.194;5.112;2023-04-24T13:17:23;8.32;;;2.40;;
49828;SDS011;35723;51.194;5.112;2023-04-24T13:19:50;9.30;;;2.40;;
49828;SDS011;35723;51.194;5.112;2023-04-24T13:22:19;13.20;;;2.30;;
49828;SDS011;35723;51.194;5.112;2023-04-24T13:24:46;10.10;;;2.28;;
49828;SDS011;35723;51.194;5.112;2023-04-24T13:27:14;9.55;;;2.50;;
49828;SDS011;35723;51.194;5.112;2023-04-24T13:29:40;9.18;;;2.25;;
49828;SDS011;35723;51.194;5.112;2023-04-24T13:32:07;9.77;;;2.40;;
49828;SDS011;35723;51.194;5.112;2023-04-24T13:34:33;13.40;;;2.40;;
49828;SDS011;35723;51.194;5.112;2023-04-24T13:36:59;11.80;;;2.70;;
49828;SDS011;35723;51.194;5.112;2023-04-24T13:39:25;8.77;;;2.63;;
49828;SDS011;35723;51.194;5.112;2023-04-24T13:41:52;11.55;;;2.45;;
49828;SDS011;35723;51.194;5.112;2023-04-24T13:44:18;8.52;;;2.47;;
49828;SDS011;35723;51.194;5.112;2023-04-24T13:46:46;9.82;;;2.60;;
49828;SDS011;35723;51.194;5.112;2023-04-24T13:49:13;9.85;;;2.70;;
49828;SDS011;35723;51.194;5.112;2023-04-24T13:51:39;8.10;;;2.55;;
49828;SDS011;35723;51.194;5.112;2023-04-24T13:54:05;11.20;;;2.40;;
49828;SDS011;35723;51.194;5.112;2023-04-24T13:56:31;10.60;;;2.42;;
49828;SDS011;35723;51.194;5.112;2023-04-24T13:58:57;9.25;;;2.40;;
49828;SDS011;35723;51.194;5.112;2023-04-24T14:01:23;5.47;;;2.20;;
49828;SDS011;35723;51.194;5.112;2023-04-24T14:03:52;9.82;;;2.40;;
49828;SDS011;35723;51.194;5.112;2023-04-24T14:06:19;6.82;;;2.42;;
49828;SDS011;35723;51.194;5.112;2023-04-24T14:08:45;6.45;;;2.47;;
49828;SDS011;35723;51.194;5.112;2023-04-24T14:11:11;9.18;;;2.30;;
49828;SDS011;35723;51.194;5.112;2023-04-24T14:13:37;6.35;;;2.10;;
49828;SDS011;35723;51.194;5.112;2023-04-24T14:16:04;8.85;;;2.20;;
49828;SDS011;35723;51.194;5.112;2023-04-24T14:18:30;7.13;;;2.50;;
49828;SDS011;35723;51.194;5.112;2023-04-24T14:20:56;9.40;;;2.10;;
49828;SDS011;35723;51.194;5.112;2023-04-24T14:23:21;10.48;;;2.50;;
49828;SDS011;35723;51.194;5.112;2023-04-24T14:25:47;7.95;;;2.67;;
49828;SDS011;35723;51.194;5.112;2023-04-24T14:28:16;12.77;;;2.50;;
49828;SDS011;35723;51.194;5.112;2023-04-24T14:30:42;13.70;;;2.80;;
49828;SDS011;35723;51.194;5.112;2023-04-24T14:33:08;10.10;;;2.58;;
49828;SDS011;35723;51.194;5.112;2023-04-24T14:35:34;8.35;;;2.40;;
49828;SDS011;35723;51.194;5.112;2023-04-24T14:38:00;7.10;;;2.50;;
49828;SDS011;35723;51.194;5.112;2023-04-24T14:40:26;9.45;;;2.53;;
49828;SDS011;35723;51.194;5.112;2023-04-24T14:42:52;6.55;;;2.42;;